Time;durP1;ratioP1;P1;durP2;ratioP2;P2;SDS_P1;SDS_P2;PMS_P1;PMS_P2;Temp;Humidity;BMP_temperature;BMP_pressure;BME280_temperature;BME280_humidity;BME280_pressure;Samples;Min_cycle;Max_cycle;Signal;HPM_P1;HPM_P2
2023/08/22 00:00:31;;;;;;;2.22;1.20;;;16.10;83.00;;;;;;5002514;28;20378;-69
2023/08/22 00:02:58;;;;;;;4.38;1.50;;;16.20;82.40;;;;;;5012166;28;20028;-71
2023/08/22 00:05:23;;;;;;;3.60;1.45;;;16.20;83.10;;;;;;5007838;28;20022;-69
2023/08/22 00:07:49;;;;;;;3.25;1.20;;;16.20;83.10;;;;;;5009269;28;20045;-70
2023/08/22 00:10:15;;;;;;;2.05;1.20;;;16.20;82.70;;;;;;5022076;28;20091;-70
2023/08/22 00:12:41;;;;;;;4.22;1.50;;;16.20;82.60;;;;;;5012805;28;20014;-70
2023/08/22 00:15:09;;;;;;;5.25;1.27;;;16.20;82.80;;;;;;5015120;28;20074;-70
2023/08/22 00:17:35;;;;;;;3.70;1.30;;;16.20;82.40;;;;;;5010918;28;20092;-69
2023/08/22 00:20:01;;;;;;;4.95;1.42;;;16.20;82.30;;;;;;5020448;28;20079;-70
2023/08/22 00:22:26;;;;;;;3.55;1.30;;;16.30;82.20;;;;;;5012446;28;20045;-69
2023/08/22 00:24:52;;;;;;;5.00;1.58;;;16.30;82.10;;;;;;5013797;28;20107;-70
2023/08/22 00:27:17;;;;;;;5.25;1.48;;;16.20;82.40;;;;;;5013321;28;20050;-70
2023/08/22 00:29:42;;;;;;;3.38;1.27;;;16.20;82.70;;;;;;5010682;28;20029;-69
2023/08/22 00:32:08;;;;;;;3.92;1.20;;;16.10;82.10;;;;;;5007240;28;20053;-70
2023/08/22 00:34:33;;;;;;;4.22;1.40;;;16.00;82.80;;;;;;5011136;28;20041;-69
2023/08/22 00:36:59;;;;;;;5.50;1.70;;;16.00;82.40;;;;;;5001662;28;20497;-70
2023/08/22 00:39:24;;;;;;;3.35;1.63;;;16.00;82.40;;;;;;5003277;28;20034;-70
2023/08/22 00:41:50;;;;;;;4.63;1.48;;;15.90;82.30;;;;;;5010594;28;20053;-69
2023/08/22 00:44:16;;;;;;;4.35;1.55;;;15.90;83.00;;;;;;5008423;28;20068;-71
2023/08/22 00:46:41;;;;;;;6.47;1.73;;;15.80;82.90;;;;;;5009085;28;20033;-69
2023/08/22 00:49:10;;;;;;;3.60;1.15;;;15.80;83.50;;;;;;5012564;28;20470;-70
2023/08/22 00:51:39;;;;;;;2.17;1.15;;;15.80;83.50;;;;;;5002698;28;20032;-69
2023/08/22 00:54:05;;;;;;;2.85;1.35;;;15.90;83.00;;;;;;5004443;28;20486;-70
2023/08/22 00:56:32;;;;;;;2.85;1.27;;;15.90;83.10;;;;;;5002604;28;20474;-69
2023/08/22 00:58:58;;;;;;;5.40;1.30;;;16.00;82.40;;;;;;5015568;28;20579;-69
2023/08/22 01:01:24;;;;;;;3.45;1.50;;;16.00;82.80;;;;;;5009651;28;20371;-70
2023/08/22 01:03:50;;;;;;;3.50;1.35;;;16.00;82.90;;;;;;5007926;28;20033;-70
2023/08/22 01:06:38;;;;;;;3.45;1.35;;;16.00;82.90;;;;;;5011225;28;20030;-69
2023/08/22 01:09:15;;;;;;;6.47;1.50;;;15.90;82.30;;;;;;5013996;28;20389;-69
2023/08/22 01:11:45;;;;;;;2.65;1.33;;;16.00;82.00;;;;;;5010449;28;20033;-69
2023/08/22 01:14:13;;;;;;;3.15;1.52;;;15.90;82.20;;;;;;5013275;28;20034;-69
2023/08/22 01:16:40;;;;;;;3.95;1.20;;;16.00;82.30;;;;;;5017758;28;20029;-69
2023/08/22 01:19:07;;;;;;;5.07;1.60;;;16.00;82.40;;;;;;5015463;28;20030;-69
2023/08/22 01:21:35;;;;;;;2.50;1.38;;;16.00;82.70;;;;;;5018295;28;20079;-72
2023/08/22 01:24:02;;;;;;;4.15;1.35;;;16.00;82.00;;;;;;5018354;28;20064;-70
2023/08/22 01:26:27;;;;;;;5.95;2.00;;;16.00;81.80;;;;;;5007530;28;20040;-70
2023/08/22 01:29:01;;;;;;;3.10;1.27;;;16.10;81.50;;;;;;5008420;28;20034;-69
2023/08/22 01:31:41;;;;;;;3.15;1.42;;;16.10;81.50;;;;;;5010126;28;20437;-71
2023/08/22 01:34:15;;;;;;;7.07;1.50;;;16.10;81.40;;;;;;5007461;28;20574;-70
2023/08/22 01:36:43;;;;;;;5.38;1.30;;;16.10;81.90;;;;;;5003849;28;20374;-70
2023/08/22 01:39:09;;;;;;;4.03;1.20;;;16.10;81.60;;;;;;5008091;28;20034;-69
2023/08/22 01:41:37;;;;;;;2.92;1.17;;;16.20;81.40;;;;;;5006482;28;20024;-69
2023/08/22 01:44:03;;;;;;;4.03;1.40;;;16.10;81.00;;;;;;5016030;28;20356;-69
2023/08/22 01:46:29;;;;;;;2.95;1.27;;;16.20;81.50;;;;;;5004987;28;20339;-70
2023/08/22 01:48:55;;;;;;;4.22;1.45;;;16.20;80.70;;;;;;5011696;28;20481;-69
2023/08/22 01:51:20;;;;;;;3.30;1.50;;;16.30;80.70;;;;;;5000834;28;20027;-70
2023/08/22 01:53:46;;;;;;;3.15;1.30;;;16.30;80.50;;;;;;5014487;28;20024;-70
2023/08/22 01:56:11;;;;;;;6.78;1.60;;;16.30;80.30;;;;;;5008860;28;20029;-69
2023/08/22 01:58:37;;;;;;;5.57;1.35;;;16.40;80.00;;;;;;5006136;28;20402;-71
2023/08/22 02:01:12;;;;;;;6.93;1.40;;;16.50;79.70;;;;;;5009276;28;20042;-69
2023/08/22 02:03:39;;;;;;;4.00;1.17;;;16.50;79.70;;;;;;5005570;28;20113;-70
2023/08/22 02:06:04;;;;;;;5.38;1.40;;;16.50;79.70;;;;;;5008127;28;20030;-70
2023/08/22 02:08:30;;;;;;;3.33;1.42;;;16.50;79.70;;;;;;5008495;28;20049;-69
2023/08/22 02:10:56;;;;;;;4.13;1.50;;;16.50;80.10;;;;;;5007944;28;20026;-71
2023/08/22 02:13:21;;;;;;;3.28;1.15;;;16.50;79.90;;;;;;5008293;28;20029;-70
2023/08/22 02:15:47;;;;;;;3.58;1.63;;;16.50;79.90;;;;;;5006535;28;20034;-70
2023/08/22 02:18:12;;;;;;;5.05;1.55;;;16.50;79.70;;;;;;5007515;28;20426;-69
2023/08/22 02:20:38;;;;;;;3.95;1.63;;;16.50;80.30;;;;;;5004109;28;20042;-71
2023/08/22 02:23:04;;;;;;;2.95;1.48;;;16.50;80.00;;;;;;5009641;28;20112;-70
2023/08/22 02:25:31;;;;;;;4.47;1.33;;;16.50;79.40;;;;;;5007875;28;20121;-70
2023/08/22 02:27:57;;;;;;;3.58;1.35;;;16.50;79.10;;;;;;5006026;28;20387;-70
2023/08/22 02:30:22;;;;;;;6.07;1.60;;;16.50;79.70;;;;;;5007934;28;20042;-70
2023/08/22 02:32:48;;;;;;;4.55;1.30;;;16.50;79.30;;;;;;5008657;28;20068;-70
2023/08/22 02:35:13;;;;;;;5.07;1.50;;;16.50;80.10;;;;;;5001305;28;20495;-70
2023/08/22 02:37:39;;;;;;;6.78;1.50;;;16.40;80.00;;;;;;5004812;28;20065;-69
2023/08/22 02:40:06;;;;;;;7.03;1.58;;;16.40;80.20;;;;;;5015221;28;20038;-69
2023/08/22 02:42:33;;;;;;;3.78;1.20;;;16.40;80.50;;;;;;5006830;28;20374;-71
2023/08/22 02:44:59;;;;;;;6.82;1.63;;;16.50;80.10;;;;;;5018554;28;20027;-69
2023/08/22 02:47:24;;;;;;;4.93;1.55;;;16.50;79.80;;;;;;5006990;28;20075;-70
2023/08/22 02:49:50;;;;;;;5.10;1.60;;;16.50;80.10;;;;;;5004924;28;20030;-70
2023/08/22 02:52:15;;;;;;;3.03;1.13;;;16.50;79.20;;;;;;5006053;28;20054;-70
2023/08/22 02:54:40;;;;;;;3.53;1.40;;;16.60;79.20;;;;;;5016657;28;20478;-70
2023/08/22 02:57:06;;;;;;;3.05;1.23;;;16.60;79.20;;;;;;5012889;28;20176;-70
2023/08/22 02:59:31;;;;;;;5.90;1.40;;;16.60;79.50;;;;;;5008428;28;20037;-69
2023/08/22 03:01:57;;;;;;;5.20;1.63;;;16.60;79.00;;;;;;5008983;28;20494;-70
2023/08/22 03:04:22;;;;;;;4.38;1.50;;;16.60;79.40;;;;;;5011585;28;20053;-69
2023/08/22 03:06:48;;;;;;;4.47;1.60;;;16.50;79.40;;;;;;5003517;28;20030;-71
2023/08/22 03:09:13;;;;;;;7.30;1.67;;;16.50;79.60;;;;;;5007734;28;20030;-69
2023/08/22 03:11:39;;;;;;;4.00;1.58;;;16.60;79.20;;;;;;5012655;28;20119;-70
2023/08/22 03:14:04;;;;;;;3.42;1.30;;;16.60;79.00;;;;;;5005719;28;20034;-70
2023/08/22 03:16:30;;;;;;;4.30;1.25;;;16.60;78.90;;;;;;5004725;28;20485;-69
2023/08/22 03:18:57;;;;;;;4.60;1.48;;;16.60;79.20;;;;;;5007948;28;20029;-72
2023/08/22 03:21:23;;;;;;;2.58;1.30;;;16.60;79.10;;;;;;5002302;28;20032;-71
2023/08/22 03:23:48;;;;;;;3.90;1.55;;;16.70;79.20;;;;;;5002500;28;20025;-70
2023/08/22 03:26:14;;;;;;;3.10;1.48;;;16.70;79.60;;;;;;5002897;28;20035;-70
2023/08/22 03:28:39;;;;;;;5.25;1.50;;;16.70;79.00;;;;;;5002168;28;20025;-70
2023/08/22 03:31:05;;;;;;;3.67;1.38;;;16.70;78.30;;;;;;5003510;28;20105;-69
2023/08/22 03:33:32;;;;;;;5.25;1.60;;;16.70;78.10;;;;;;5003989;28;20041;-69
2023/08/22 03:35:58;;;;;;;3.92;1.33;;;16.70;78.60;;;;;;4998750;28;20026;-70
2023/08/22 03:38:24;;;;;;;2.25;1.50;;;16.70;79.30;;;;;;4995004;28;20040;-70
2023/08/22 03:40:51;;;;;;;4.22;1.50;;;16.70;79.00;;;;;;5000280;28;20045;-69
2023/08/22 03:43:18;;;;;;;4.35;1.40;;;16.80;78.00;;;;;;4998932;28;20036;-71
2023/08/22 03:45:44;;;;;;;6.60;1.48;;;16.80;77.50;;;;;;5001735;28;20399;-69
2023/08/22 03:48:10;;;;;;;3.58;1.30;;;16.90;77.30;;;;;;5013012;28;20030;-70
2023/08/22 03:50:37;;;;;;;2.65;1.20;;;16.90;77.60;;;;;;5005059;28;20022;-70
2023/08/22 03:53:03;;;;;;;3.22;1.48;;;16.80;78.30;;;;;;5007229;28;20054;-69
2023/08/22 03:55:29;;;;;;;3.17;1.13;;;16.80;77.60;;;;;;5025537;28;20072;-70
2023/08/22 03:57:54;;;;;;;5.30;1.60;;;16.80;77.90;;;;;;5010637;28;20018;-71
2023/08/22 04:00:20;;;;;;;5.13;1.38;;;16.80;78.00;;;;;;5008104;28;20032;-70
2023/08/22 04:02:46;;;;;;;2.83;1.25;;;16.90;77.50;;;;;;5011230;28;20030;-69
2023/08/22 04:05:11;;;;;;;5.05;1.30;;;16.90;77.90;;;;;;5012422;28;20112;-70
2023/08/22 04:07:37;;;;;;;3.58;1.50;;;16.90;77.50;;;;;;5002503;28;20034;-70
2023/08/22 04:10:02;;;;;;;4.82;1.52;;;16.90;77.30;;;;;;5011586;28;20038;-70
2023/08/22 04:12:28;;;;;;;5.70;1.52;;;16.90;77.80;;;;;;5009757;28;20027;-70
2023/08/22 04:14:54;;;;;;;2.70;1.20;;;16.90;77.30;;;;;;5005865;28;20564;-71
2023/08/22 04:17:19;;;;;;;2.75;1.10;;;16.90;77.90;;;;;;5007421;28;20049;-70
2023/08/22 04:19:45;;;;;;;5.18;1.60;;;16.90;77.70;;;;;;5009653;28;20072;-70
2023/08/22 04:22:10;;;;;;;4.93;1.33;;;16.90;78.10;;;;;;5006186;28;20041;-71
2023/08/22 04:24:36;;;;;;;2.28;1.40;;;16.90;78.50;;;;;;5014465;28;20120;-70
2023/08/22 04:27:02;;;;;;;3.95;1.60;;;16.90;78.30;;;;;;5019659;28;20026;-69
2023/08/22 04:29:27;;;;;;;2.35;1.48;;;16.90;78.70;;;;;;5007303;28;20105;-72
2023/08/22 04:31:53;;;;;;;3.25;1.40;;;16.90;78.50;;;;;;5003445;28;20084;-71
2023/08/22 04:34:18;;;;;;;4.93;1.58;;;16.90;78.00;;;;;;5010124;28;20037;-71
2023/08/22 04:36:44;;;;;;;4.38;1.60;;;16.90;78.20;;;;;;5004997;28;20029;-71
2023/08/22 04:39:10;;;;;;;3.53;1.50;;;16.80;78.30;;;;;;4990012;28;20517;-71
2023/08/22 04:41:35;;;;;;;7.03;1.38;;;16.80;78.30;;;;;;5009806;28;20032;-71
2023/08/22 04:44:00;;;;;;;4.22;1.30;;;16.90;79.50;;;;;;5004274;28;20147;-71
2023/08/22 04:46:26;;;;;;;3.70;1.20;;;16.80;79.50;;;;;;5009016;28;20034;-71
2023/08/22 04:48:51;;;;;;;5.88;1.58;;;16.80;79.50;;;;;;5005763;28;20053;-71
2023/08/22 04:51:17;;;;;;;3.85;1.50;;;16.80;79.60;;;;;;5008595;28;20513;-72
2023/08/22 04:53:42;;;;;;;2.83;1.38;;;16.80;79.10;;;;;;5001873;28;20029;-71
2023/08/22 04:56:08;;;;;;;3.97;1.42;;;16.80;79.30;;;;;;5004091;28;20041;-70
2023/08/22 04:58:33;;;;;;;4.13;1.48;;;16.80;79.30;;;;;;5010000;28;20034;-70
2023/08/22 05:00:59;;;;;;;5.93;1.50;;;16.70;81.80;;;;;;5006095;28;20094;-69
2023/08/22 05:03:24;;;;;;;5.53;1.40;;;16.60;82.80;;;;;;5000237;28;20030;-69
2023/08/22 05:05:50;;;;;;;7.57;2.03;;;16.50;83.20;;;;;;5000487;28;20061;-69
2023/08/22 05:08:16;;;;;;;7.28;1.52;;;16.50;84.30;;;;;;5000675;28;20479;-73
2023/08/22 05:10:42;;;;;;;4.90;1.75;;;16.40;84.30;;;;;;5001505;28;20033;-71
2023/08/22 05:13:08;;;;;;;3.42;1.63;;;16.40;84.80;;;;;;4995886;28;20469;-72
2023/08/22 05:15:33;;;;;;;3.78;1.60;;;16.40;85.50;;;;;;5003916;28;20033;-71
2023/08/22 05:17:59;;;;;;;5.07;1.20;;;16.30;85.00;;;;;;5011185;28;20042;-72
2023/08/22 05:20:24;;;;;;;6.05;2.17;;;16.30;85.90;;;;;;5007528;28;20406;-71
2023/08/22 05:22:50;;;;;;;5.15;1.85;;;16.30;86.50;;;;;;5004616;28;20044;-71
2023/08/22 05:25:15;;;;;;;5.00;2.03;;;16.40;86.20;;;;;;5008306;28;20042;-71
2023/08/22 05:27:41;;;;;;;5.22;1.92;;;16.40;85.50;;;;;;5010329;28;20053;-72
2023/08/22 05:30:07;;;;;;;4.70;1.92;;;16.40;84.60;;;;;;5013950;28;20456;-71
2023/08/22 05:32:32;;;;;;;3.45;1.77;;;16.50;84.10;;;;;;5015219;28;20022;-71
2023/08/22 05:34:58;;;;;;;2.17;1.45;;;16.50;86.30;;;;;;5000722;28;20106;-71
2023/08/22 05:37:24;;;;;;;8.00;2.17;;;16.50;85.40;;;;;;5003292;28;20026;-71
2023/08/22 05:39:50;;;;;;;3.58;1.90;;;16.50;86.50;;;;;;5002148;28;20026;-71
2023/08/22 05:42:16;;;;;;;5.78;2.10;;;16.50;85.60;;;;;;5003289;28;20038;-71
2023/08/22 05:44:41;;;;;;;6.22;2.20;;;16.60;86.50;;;;;;4997896;28;20113;-71
2023/08/22 05:47:08;;;;;;;3.97;1.90;;;16.60;86.50;;;;;;5006404;28;20041;-71
2023/08/22 05:49:34;;;;;;;2.80;1.63;;;16.60;87.50;;;;;;5009338;28;20434;-71
2023/08/22 05:52:02;;;;;;;7.30;1.80;;;16.60;87.60;;;;;;5000046;28;20061;-71
2023/08/22 05:54:27;;;;;;;4.85;1.70;;;16.70;87.80;;;;;;4996204;28;20036;-71
2023/08/22 05:56:53;;;;;;;7.22;1.88;;;16.70;87.70;;;;;;4997391;28;20038;-71
2023/08/22 05:59:18;;;;;;;4.47;1.75;;;16.70;86.30;;;;;;5000968;28;20030;-71
2023/08/22 06:01:43;;;;;;;4.57;1.95;;;16.80;85.40;;;;;;5006987;28;20120;-71
2023/08/22 06:04:09;;;;;;;6.32;1.80;;;16.80;84.20;;;;;;5006468;28;20033;-71
2023/08/22 06:06:34;;;;;;;6.35;1.80;;;16.90;84.50;;;;;;5000479;28;20465;-71
2023/08/22 06:09:00;;;;;;;4.50;1.65;;;17.00;83.90;;;;;;5003363;28;20129;-71
2023/08/22 06:11:25;;;;;;;3.85;1.65;;;17.10;83.50;;;;;;5016663;28;20060;-71
2023/08/22 06:13:51;;;;;;;5.75;1.90;;;17.20;82.70;;;;;;5004608;28;20042;-72
2023/08/22 06:16:16;;;;;;;8.23;1.75;;;17.30;82.00;;;;;;5013586;28;20046;-71
2023/08/22 06:18:42;;;;;;;3.42;1.48;;;17.40;82.30;;;;;;5019877;28;20049;-71
2023/08/22 06:21:07;;;;;;;5.03;1.60;;;17.50;81.60;;;;;;5009129;28;20450;-72
2023/08/22 06:23:32;;;;;;;4.50;1.80;;;17.50;82.40;;;;;;5006899;28;20073;-71
2023/08/22 06:25:58;;;;;;;2.40;1.33;;;17.60;81.20;;;;;;5005118;28;20050;-71
2023/08/22 06:28:23;;;;;;;6.30;1.52;;;17.60;81.80;;;;;;5009015;28;20439;-71
2023/08/22 06:30:49;;;;;;;4.57;1.50;;;17.60;80.80;;;;;;5005128;28;20030;-71
2023/08/22 06:33:16;;;;;;;3.40;1.48;;;17.80;81.40;;;;;;5015543;28;20044;-71
2023/08/22 06:35:46;;;;;;;4.13;1.50;;;17.80;80.20;;;;;;4999944;28;20498;-71
2023/08/22 06:38:11;;;;;;;4.95;1.50;;;17.90;80.70;;;;;;5015949;28;20021;-71
2023/08/22 06:40:36;;;;;;;6.05;1.80;;;18.00;81.10;;;;;;5002696;28;20092;-71
2023/08/22 06:43:03;;;;;;;3.53;1.45;;;18.00;80.20;;;;;;5007350;28;20038;-72
2023/08/22 06:45:29;;;;;;;3.47;1.38;;;18.00;80.30;;;;;;5000636;28;20014;-72
2023/08/22 06:47:54;;;;;;;3.47;1.60;;;18.00;79.80;;;;;;5011689;28;20037;-71
2023/08/22 06:50:20;;;;;;;5.93;2.00;;;18.00;79.80;;;;;;5001450;28;20037;-71
2023/08/22 06:52:45;;;;;;;3.15;1.40;;;18.00;80.50;;;;;;5010504;28;20049;-71
2023/08/22 06:55:11;;;;;;;5.82;1.45;;;18.00;79.90;;;;;;5006199;28;20040;-72
2023/08/22 06:57:37;;;;;;;3.78;1.38;;;18.00;81.00;;;;;;5014400;28;20037;-71
2023/08/22 07:00:13;;;;;;;4.47;1.35;;;18.00;81.10;;;;;;4999365;28;20042;-72
2023/08/22 07:02:39;;;;;;;3.80;1.52;;;18.00;80.70;;;;;;5008477;28;20084;-72
2023/08/22 07:05:05;;;;;;;3.90;1.40;;;18.00;79.90;;;;;;5009140;28;20542;-71
2023/08/22 07:07:30;;;;;;;5.05;1.30;;;18.00;80.80;;;;;;5001395;28;20114;-72
2023/08/22 07:09:56;;;;;;;3.85;1.45;;;18.00;80.50;;;;;;4995904;28;20048;-72
2023/08/22 07:12:21;;;;;;;2.72;1.38;;;18.00;81.20;;;;;;5009172;28;20022;-72
2023/08/22 07:14:47;;;;;;;6.18;1.50;;;18.10;81.90;;;;;;5003359;28;20490;-72
2023/08/22 07:17:13;;;;;;;3.17;1.20;;;18.30;80.30;;;;;;5006209;28;20038;-72
2023/08/22 07:19:39;;;;;;;5.40;1.38;;;18.50;80.70;;;;;;5008479;28;20037;-71
2023/08/22 07:22:04;;;;;;;3.67;1.52;;;18.70;80.50;;;;;;5001068;28;20491;-72
2023/08/22 07:24:30;;;;;;;3.60;1.20;;;18.90;79.00;;;;;;5004315;28;20057;-71
2023/08/22 07:26:55;;;;;;;5.53;1.40;;;19.10;78.20;;;;;;5008935;28;20029;-71
2023/08/22 07:29:21;;;;;;;4.43;1.40;;;19.30;78.10;;;;;;5004505;28;20028;-70
2023/08/22 07:31:46;;;;;;;3.78;1.20;;;19.50;77.80;;;;;;5015482;28;20026;-72
2023/08/22 07:34:12;;;;;;;5.65;1.83;;;19.70;78.00;;;;;;5001075;28;20044;-71
2023/08/22 07:36:37;;;;;;;4.00;1.30;;;19.90;78.30;;;;;;5002257;28;20033;-71
2023/08/22 07:39:03;;;;;;;3.83;1.20;;;20.00;76.40;;;;;;5000900;28;20113;-71
2023/08/22 07:41:28;;;;;;;5.50;1.40;;;20.30;76.20;;;;;;5009125;28;20395;-71
2023/08/22 07:43:54;;;;;;;6.03;1.50;;;20.50;75.80;;;;;;5004343;28;20042;-71
2023/08/22 07:46:19;;;;;;;5.10;1.40;;;20.50;73.50;;;;;;5003038;28;20359;-71
2023/08/22 07:48:45;;;;;;;4.35;1.20;;;20.70;74.30;;;;;;5006488;28;20026;-70
2023/08/22 07:51:11;;;;;;;3.50;1.48;;;20.90;74.50;;;;;;5011106;28;20030;-71
2023/08/22 07:53:36;;;;;;;3.33;1.08;;;21.00;73.20;;;;;;5014677;28;20187;-71
2023/08/22 07:56:02;;;;;;;4.20;1.50;;;21.10;74.10;;;;;;5010326;28;20030;-71
2023/08/22 07:58:27;;;;;;;4.85;1.10;;;21.10;73.50;;;;;;5014198;28;20030;-71
2023/08/22 08:00:53;;;;;;;5.30;1.38;;;21.30;73.30;;;;;;5009578;28;20117;-71
2023/08/22 08:03:18;;;;;;;4.97;1.35;;;21.30;72.20;;;;;;5004895;28;20390;-71
2023/08/22 08:05:44;;;;;;;4.30;1.40;;;21.40;72.90;;;;;;5007045;28;20139;-71
2023/08/22 08:08:09;;;;;;;4.45;1.40;;;21.60;72.40;;;;;;5006831;28;20459;-71
2023/08/22 08:10:38;;;;;;;4.47;1.50;;;21.80;73.10;;;;;;5009721;28;20544;-70
2023/08/22 08:13:04;;;;;;;4.57;1.10;;;22.00;70.30;;;;;;5012287;28;20159;-71
2023/08/22 08:15:30;;;;;;;2.75;1.35;;;22.20;71.00;;;;;;5002030;28;20488;-72
2023/08/22 08:17:58;;;;;;;9.60;1.63;;;22.30;70.90;;;;;;5009410;28;20026;-72
2023/08/22 08:20:24;;;;;;;3.85;1.50;;;22.30;71.40;;;;;;5004497;28;20049;-72
2023/08/22 08:22:49;;;;;;;3.78;1.20;;;22.30;71.10;;;;;;5003402;28;20022;-72
2023/08/22 08:25:15;;;;;;;4.38;1.27;;;22.40;70.10;;;;;;5010656;28;20050;-72
2023/08/22 08:27:40;;;;;;;4.53;1.25;;;22.60;69.50;;;;;;5000655;28;20033;-73
2023/08/22 08:30:06;;;;;;;4.90;1.25;;;22.90;70.00;;;;;;5008221;28;20144;-72
2023/08/22 08:32:32;;;;;;;3.97;1.00;;;23.20;68.20;;;;;;5015190;28;20205;-72
2023/08/22 08:34:58;;;;;;;5.72;1.40;;;23.50;69.50;;;;;;5002359;28;20478;-72
2023/08/22 08:37:23;;;;;;;6.03;1.20;;;23.90;68.70;;;;;;5003645;28;20083;-73
2023/08/22 08:39:49;;;;;;;3.92;1.40;;;24.00;68.30;;;;;;5010616;28;20160;-73
2023/08/22 08:42:14;;;;;;;5.85;1.30;;;23.90;65.90;;;;;;5011134;28;20033;-72
2023/08/22 08:44:41;;;;;;;2.60;1.20;;;23.80;66.50;;;;;;5003624;28;20065;-72
2023/08/22 08:47:07;;;;;;;3.40;1.17;;;23.90;67.20;;;;;;5005704;28;20153;-72
2023/08/22 08:49:34;;;;;;;4.13;1.17;;;23.60;67.00;;;;;;5013304;28;20021;-72
2023/08/22 08:52:08;;;;;;;4.75;1.33;;;23.50;67.20;;;;;;5003501;28;20022;-73
2023/08/22 08:54:34;;;;;;;2.90;1.00;;;23.90;68.70;;;;;;5001171;28;20113;-72
2023/08/22 08:57:00;;;;;;;6.65;1.20;;;24.00;68.30;;;;;;5009567;28;20529;-73
2023/08/22 08:59:27;;;;;;;2.80;1.30;;;23.80;66.20;;;;;;5002076;28;20037;-72
2023/08/22 09:01:53;;;;;;;7.05;1.40;;;23.70;66.90;;;;;;5003638;28;20044;-71
2023/08/22 09:04:19;;;;;;;3.50;1.30;;;23.80;66.50;;;;;;5001463;28;21363;-72
2023/08/22 09:06:46;;;;;;;6.72;1.50;;;24.20;66.60;;;;;;5014883;28;20033;-72
2023/08/22 09:09:12;;;;;;;6.07;1.50;;;24.40;66.60;;;;;;5013516;28;20025;-72
2023/08/22 09:11:43;;;;;;;6.10;1.52;;;24.60;63.80;;;;;;5009578;28;20026;-72
2023/08/22 09:14:10;;;;;;;6.35;1.38;;;24.60;62.80;;;;;;5004352;28;20057;-73
2023/08/22 09:16:35;;;;;;;4.45;1.27;;;24.90;61.70;;;;;;5009058;28;20045;-72
2023/08/22 09:19:01;;;;;;;6.32;1.50;;;25.20;64.60;;;;;;5007846;28;20042;-72
2023/08/22 09:21:28;;;;;;;6.57;1.52;;;25.00;63.00;;;;;;5004378;28;20535;-73
2023/08/22 09:24:05;;;;;;;5.00;1.38;;;24.90;62.10;;;;;;5011947;28;20470;-73
2023/08/22 09:26:30;;;;;;;6.63;1.65;;;25.10;64.40;;;;;;5007660;28;20030;-72
2023/08/22 09:28:56;;;;;;;4.93;1.35;;;24.90;62.30;;;;;;5019972;28;20154;-72
2023/08/22 09:31:23;;;;;;;7.90;1.95;;;25.00;63.10;;;;;;5015074;28;20029;-72
2023/08/22 09:33:49;;;;;;;6.13;1.40;;;24.90;62.00;;;;;;5003170;28;20026;-73
2023/08/22 09:36:20;;;;;;;3.67;1.40;;;25.20;61.10;;;;;;5004815;28;20508;-72
2023/08/22 09:38:53;;;;;;;;;;;25.30;60.80;;;;;;4999331;28;20056;-72
2023/08/22 09:41:27;;;;;;;5.25;1.38;;;25.80;63.90;;;;;;5011315;28;20007;-73
2023/08/22 09:43:54;;;;;;;4.90;1.13;;;25.90;61.70;;;;;;5006729;28;20030;-73
2023/08/22 09:46:23;;;;;;;4.10;1.33;;;26.20;60.80;;;;;;5001391;28;20611;-72
2023/08/22 09:48:50;;;;;;;5.30;1.58;;;26.20;60.90;;;;;;5003057;28;20760;-73
2023/08/22 09:51:20;;;;;;;5.70;1.65;;;26.30;60.80;;;;;;5013913;28;20030;-73
2023/08/22 09:53:53;;;;;;;6.60;1.58;;;26.30;61.00;;;;;;5001162;28;20022;-74
2023/08/22 09:56:20;;;;;;;7.45;1.40;;;26.40;62.30;;;;;;5009254;28;20041;-72
2023/08/22 09:58:46;;;;;;;4.88;1.67;;;26.20;60.80;;;;;;5019468;28;20056;-73
2023/08/22 10:01:16;;;;;;;6.13;1.55;;;26.20;60.80;;;;;;5008607;28;20567;-71
2023/08/22 10:03:46;;;;;;;5.68;1.63;;;26.40;60.80;;;;;;5017702;28;20042;-72
2023/08/22 10:06:14;;;;;;;4.32;1.60;;;26.30;59.30;;;;;;5018064;28;20512;-72
2023/08/22 10:08:41;;;;;;;5.00;1.60;;;26.00;61.40;;;;;;5017962;28;20498;-72
2023/08/22 10:11:10;;;;;;;7.10;2.10;;;26.00;60.70;;;;;;5005925;28;20053;-73
2023/08/22 10:13:38;;;;;;;6.18;1.90;;;25.80;62.10;;;;;;5002535;28;20026;-73
2023/08/22 10:16:04;;;;;;;3.65;1.70;;;25.60;61.90;;;;;;5008269;28;20026;-73
2023/08/22 10:18:29;;;;;;;7.22;1.67;;;25.60;62.10;;;;;;5007161;28;20056;-73
2023/08/22 10:20:55;;;;;;;7.82;2.38;;;25.70;62.50;;;;;;5021316;28;20168;-72
2023/08/22 10:23:52;;;;;;;5.88;1.85;;;25.60;62.50;;;;;;5007461;28;20671;-73
2023/08/22 10:26:21;;;;;;;5.70;1.70;;;25.60;62.50;;;;;;5011806;28;20045;-73
2023/08/22 10:29:15;;;;;;;8.87;1.97;;;25.70;63.00;;;;;;5010012;28;20041;-73
2023/08/22 10:32:00;;;;;;;7.40;2.03;;;25.70;61.40;;;;;;5005999;28;20021;-73
2023/08/22 10:34:26;;;;;;;5.90;2.10;;;25.50;61.70;;;;;;5007451;28;20116;-73
2023/08/22 10:36:59;;;;;;;8.82;3.00;;;26.00;60.40;;;;;;5003967;28;20633;-73
2023/08/22 10:39:50;;;;;;;8.57;2.05;;;25.80;60.40;;;;;;5003377;28;20030;-72
2023/08/22 10:42:16;;;;;;;6.97;1.73;;;26.20;59.70;;;;;;5019898;28;20116;-72
2023/08/22 10:44:46;;;;;;;5.25;1.77;;;26.40;60.50;;;;;;5008914;28;20030;-73
2023/08/22 10:47:19;;;;;;;7.28;2.20;;;26.30;59.60;;;;;;5008752;28;20417;-73
2023/08/22 10:49:50;;;;;;;9.48;2.50;;;26.40;59.70;;;;;;5011150;28;20062;-73
2023/08/22 10:52:16;;;;;;;2.63;1.52;;;26.90;58.20;;;;;;5001867;28;20071;-78
2023/08/22 10:55:08;;;;;;;5.32;2.05;;;27.10;59.40;;;;;;5009914;28;20374;-78
2023/08/22 10:57:36;;;;;;;5.28;1.80;;;26.90;57.20;;;;;;5002111;28;20031;-77
2023/08/22 11:00:18;;;;;;;8.48;1.98;;;27.20;57.50;;;;;;5007439;28;20536;-79
2023/08/22 11:02:44;;;;;;;6.10;1.80;;;27.70;56.50;;;;;;4997413;28;20113;-79
2023/08/22 11:05:12;;;;;;;6.68;1.83;;;27.20;57.60;;;;;;5002147;28;20038;-72
2023/08/22 11:07:42;;;;;;;4.97;1.67;;;27.20;56.80;;;;;;5004272;28;20509;-74
2023/08/22 11:10:16;;;;;;;7.15;1.73;;;26.60;57.00;;;;;;4999194;28;20072;-74
2023/08/22 11:12:43;;;;;;;5.55;1.42;;;26.90;56.70;;;;;;5022655;28;20104;-73
2023/08/22 11:15:10;;;;;;;8.43;2.10;;;27.00;56.20;;;;;;4998323;28;20066;-73
2023/08/22 11:17:39;;;;;;;4.20;1.38;;;27.10;56.10;;;;;;5017342;28;20466;-74
2023/08/22 11:20:10;;;;;;;7.47;1.77;;;27.40;55.80;;;;;;5007247;28;20030;-73
2023/08/22 11:22:35;;;;;;;;;;;27.50;57.20;;;;;;5004246;28;20500;-80
2023/08/22 11:25:01;;;;;;;4.30;1.52;;;27.60;56.00;;;;;;5009452;28;19917;-75
2023/08/22 11:27:26;;;;;;;5.55;1.60;;;27.80;55.60;;;;;;5006280;28;20174;-72
2023/08/22 11:29:53;;;;;;;5.78;1.67;;;28.00;53.90;;;;;;5003518;28;20195;-72
2023/08/22 11:32:22;;;;;;;6.72;1.67;;;28.20;53.40;;;;;;5012501;28;20025;-72
2023/08/22 11:34:50;;;;;;;6.63;1.85;;;27.60;54.20;;;;;;5006054;28;20133;-71
2023/08/22 11:37:19;;;;;;;6.47;1.70;;;26.80;55.90;;;;;;5003527;28;20022;-71
2023/08/22 11:39:48;;;;;;;8.05;1.40;;;27.20;55.00;;;;;;5001804;28;20046;-72
2023/08/22 11:42:19;;;;;;;4.68;1.50;;;27.90;54.10;;;;;;5017013;28;20109;-71
2023/08/22 11:45:03;;;;;;;5.25;1.45;;;28.30;53.90;;;;;;5004894;28;20502;-72
2023/08/22 11:47:42;;;;;;;4.82;1.45;;;28.90;50.60;;;;;;5025668;28;20545;-73
2023/08/22 11:50:19;;;;;;;3.35;1.65;;;28.50;51.70;;;;;;5004550;28;20041;-73
2023/08/22 11:52:47;;;;;;;5.10;1.30;;;27.80;53.00;;;;;;5005407;28;20032;-73
2023/08/22 11:55:16;;;;;;;7.05;1.40;;;28.10;53.20;;;;;;5005684;28;20026;-74
2023/08/22 11:57:43;;;;;;;4.15;1.33;;;27.60;53.20;;;;;;5001011;28;20018;-73
2023/08/22 12:00:13;;;;;;;3.88;1.33;;;27.40;54.30;;;;;;4996600;28;20113;-74
2023/08/22 12:02:43;;;;;;;2.83;1.08;;;27.60;54.50;;;;;;4999424;28;20394;-73
2023/08/22 12:05:27;;;;;;;3.95;1.08;;;28.10;50.30;;;;;;5011032;28;20104;-73
2023/08/22 12:07:52;;;;;;;5.53;1.52;;;28.20;49.30;;;;;;5002610;28;20041;-73
2023/08/22 12:10:18;;;;;;;3.15;1.13;;;28.40;50.50;;;;;;5005855;28;20029;-72
2023/08/22 12:12:43;;;;;;;3.05;1.10;;;28.20;50.10;;;;;;5014537;28;20034;-72
2023/08/22 12:15:09;;;;;;;6.97;1.42;;;28.30;51.10;;;;;;5008557;28;20044;-72
2023/08/22 12:17:34;;;;;;;6.80;1.27;;;28.20;49.30;;;;;;5015253;28;20038;-73
2023/08/22 12:20:00;;;;;;;13.20;1.40;;;28.70;49.20;;;;;;5007642;28;20478;-72
2023/08/22 12:22:26;;;;;;;4.68;1.58;;;29.20;48.70;;;;;;5003362;28;20026;-73
2023/08/22 12:24:51;;;;;;;3.63;1.40;;;29.20;47.90;;;;;;5012897;28;20149;-73
2023/08/22 12:27:17;;;;;;;6.47;1.10;;;28.50;48.50;;;;;;5004212;28;20406;-73
2023/08/22 12:29:44;;;;;;;4.22;0.90;;;28.80;47.70;;;;;;5000842;28;20022;-73
2023/08/22 12:32:10;;;;;;;1.90;0.77;;;28.70;44.60;;;;;;5010310;28;20035;-74
2023/08/22 12:34:35;;;;;;;2.80;0.90;;;28.60;43.80;;;;;;5009913;28;20156;-73
2023/08/22 12:37:01;;;;;;;1.75;0.70;;;28.70;44.50;;;;;;5007443;28;20029;-73
2023/08/22 12:39:26;;;;;;;2.85;0.90;;;29.70;46.70;;;;;;5009261;28;20118;-74
2023/08/22 12:41:52;;;;;;;3.08;0.90;;;30.00;45.60;;;;;;5007444;28;20034;-73
2023/08/22 12:44:17;;;;;;;2.28;0.63;;;30.00;45.80;;;;;;5003422;28;20068;-73
2023/08/22 12:46:43;;;;;;;1.98;0.75;;;29.90;46.00;;;;;;5009392;28;20033;-74